Time;durP1;ratioP1;P1;durP2;ratioP2;P2;SDS_P1;SDS_P2;PMS_P1;PMS_P2;Temp;Humidity;BMP_temperature;BMP_pressure;BME280_temperature;BME280_humidity;BME280_pressure;Samples;Min_cycle;Max_cycle;Signal;HPM_P1;HPM_P2
2023/02/20 00:01:30;;;;;;;;;;;9.70;76.90;;;;;;5003244;28;94495;-39
2023/02/20 00:03:55;;;;;;;;;;;9.70;76.90;;;;;;5001023;28;92155;-38
2023/02/20 00:06:21;;;;;;;;;;;9.70;76.90;;;;;;5000025;28;93569;-38
2023/02/20 00:08:46;;;;;;;;;;;9.70;77.00;;;;;;5000500;28;92189;-38
2023/02/20 00:11:12;;;;;;;;;;;9.60;76.90;;;;;;5000685;28;93579;-38
2023/02/20 00:13:37;;;;;;;;;;;9.60;76.80;;;;;;4999353;28;95653;-39
2023/02/20 00:16:03;;;;;;;;;;;9.60;76.80;;;;;;5000461;28;92135;-39
2023/02/20 00:18:28;;;;;;;;;;;9.60;76.90;;;;;;5000801;28;92361;-39
2023/02/20 00:20:54;;;;;;;;;;;9.60;76.90;;;;;;5003076;28;94546;-38
2023/02/20 00:23:19;;;;;;;;;;;9.60;76.80;;;;;;5000333;28;93802;-39
2023/02/20 00:25:45;;;;;;;;;;;9.60;76.80;;;;;;4999918;28;94828;-38
2023/02/20 00:28:10;;;;;;;;;;;9.60;76.70;;;;;;5000201;28;92154;-38
2023/02/20 00:30:36;;;;;;;;;;;9.60;76.70;;;;;;5001022;28;92026;-39
2023/02/20 00:33:01;;;;;;;;;;;9.60;76.70;;;;;;4999905;28;94547;-39
2023/02/20 00:35:27;;;;;;;;;;;9.60;76.70;;;;;;5000178;28;92183;-39
2023/02/20 00:37:53;;;;;;;;;;;9.60;76.70;;;;;;5000177;28;93273;-39
2023/02/20 00:40:19;;;;;;;;;;;9.60;76.60;;;;;;4999580;28;94500;-38
2023/02/20 00:42:45;;;;;;;;;;;9.60;76.70;;;;;;5003456;28;92144;-39
2023/02/20 00:45:11;;;;;;;;;;;9.60;76.70;;;;;;4999843;28;92941;-38
2023/02/20 00:47:37;;;;;;;;;;;9.60;76.80;;;;;;5000131;28;92171;-39
2023/02/20 00:50:03;;;;;;;;;;;9.60;76.80;;;;;;5000130;28;92731;-38
2023/02/20 00:52:28;;;;;;;;;;;9.50;76.80;;;;;;4999448;28;94362;-38
2023/02/20 00:54:54;;;;;;;;;;;9.60;76.80;;;;;;5000541;28;91459;-39
2023/02/20 00:57:19;;;;;;;;;;;9.50;76.80;;;;;;4999714;28;93285;-38
2023/02/20 00:59:45;;;;;;;;;;;9.50;76.70;;;;;;4999213;28;94469;-39
2023/02/20 01:02:10;;;;;;;;;;;9.50;76.80;;;;;;4999224;28;93130;-39
2023/02/20 01:04:36;;;;;;;;;;;9.60;76.80;;;;;;5002150;28;94744;-39
2023/02/20 01:07:01;;;;;;;;;;;9.50;76.80;;;;;;4999227;28;92236;-38
2023/02/20 01:09:27;;;;;;;;;;;9.50;76.80;;;;;;4999781;28;94096;-39
2023/02/20 01:11:52;;;;;;;;;;;9.50;77.00;;;;;;4998988;28;94652;-39
2023/02/20 01:14:18;;;;;;;;;;;9.40;76.90;;;;;;4999535;28;92103;-38
2023/02/20 01:16:44;;;;;;;;;;;9.50;76.90;;;;;;4999358;28;93977;-38
2023/02/20 01:19:10;;;;;;;;;;;9.40;76.80;;;;;;4998657;28;93884;-39
2023/02/20 01:21:35;;;;;;;;;;;9.50;76.90;;;;;;4999588;28;92122;-38
2023/02/20 01:24:01;;;;;;;;;;;9.40;76.80;;;;;;4999869;28;92386;-38
2023/02/20 01:26:26;;;;;;;;;;;9.50;76.80;;;;;;5001243;28;95382;-38
2023/02/20 01:28:52;;;;;;;;;;;9.40;76.70;;;;;;4998919;28;94806;-39
2023/02/20 01:31:17;;;;;;;;;;;9.40;76.70;;;;;;4998908;28;94608;-39
2023/02/20 01:33:43;;;;;;;;;;;9.40;76.70;;;;;;4999440;28;92210;-39
2023/02/20 01:36:09;;;;;;;;;;;9.40;76.80;;;;;;4999348;28;93701;-39
2023/02/20 01:38:35;;;;;;;;;;;9.40;76.60;;;;;;4998825;28;94451;-39
2023/02/20 01:41:00;;;;;;;;;;;9.40;76.60;;;;;;4999118;28;92224;-38
2023/02/20 01:43:26;;;;;;;;;;;9.40;76.60;;;;;;4999785;28;92893;-38
2023/02/20 01:45:51;;;;;;;;;;;9.40;76.50;;;;;;4998689;28;94640;-39
2023/02/20 01:48:21;;;;;;;;;;;9.50;76.70;;;;;;5002358;28;91920;-38
2023/02/20 01:50:47;;;;;;;;;;;9.40;76.60;;;;;;4998019;28;94704;-39
2023/02/20 01:53:14;;;;;;;;;;;9.40;76.60;;;;;;4999278;28;92041;-38
2023/02/20 01:55:46;;;;;;;;;;;9.30;76.30;;;;;;4999188;28;92519;-38
2023/02/20 01:58:15;;;;;;;;;;;9.40;76.60;;;;;;4998404;28;93407;-39
2023/02/20 02:00:40;;;;;;;;;;;9.40;76.50;;;;;;4999029;28;92193;-39
2023/02/20 02:03:09;;;;;;;;;;;9.30;76.50;;;;;;4998788;28;92454;-39
2023/02/20 02:05:36;;;;;;;;;;;9.40;76.60;;;;;;4998062;28;94665;-39
2023/02/20 02:08:03;;;;;;;;;;;9.30;76.40;;;;;;4999335;28;91219;-39
2023/02/20 02:10:36;;;;;;;;;;;9.30;76.40;;;;;;5001334;28;93123;-39
2023/02/20 02:13:02;;;;;;;;;;;9.40;76.60;;;;;;4998891;28;92639;-39
2023/02/20 02:15:27;;;;;;;;;;;9.30;76.40;;;;;;4998229;28;93923;-38
2023/02/20 02:18:15;;;;;;;;;;;9.40;76.60;;;;;;4998206;28;94408;-39
2023/02/20 02:20:59;;;;;;;;;;;9.40;76.50;;;;;;4998739;28;92176;-39
2023/02/20 02:23:43;;;;;;;;;;;9.30;76.60;;;;;;4998849;28;93678;-39
2023/02/20 02:26:27;;;;;;;;;;;9.30;76.50;;;;;;4998302;28;94484;-39
2023/02/20 02:28:55;;;;;;;;;;;9.30;76.50;;;;;;4998896;28;92246;-39
2023/02/20 02:31:39;;;;;;;;;;;9.30;76.60;;;;;;5003026;28;92494;-39
2023/02/20 02:34:23;;;;;;;;;;;9.30;76.70;;;;;;5002662;28;91563;-38
2023/02/20 02:36:54;;;;;;;;;;;9.30;76.70;;;;;;5002025;28;93011;-39
2023/02/20 02:39:22;;;;;;;;;;;9.30;76.70;;;;;;5001852;28;93031;-39
2023/02/20 02:41:48;;;;;;;;;;;9.30;76.70;;;;;;5001349;28;93118;-39
2023/02/20 02:44:16;;;;;;;;;;;9.30;76.60;;;;;;5002145;28;93209;-39
2023/02/20 02:46:46;;;;;;;;;;;9.30;76.80;;;;;;5001584;28;93102;-38
2023/02/20 02:49:17;;;;;;;;;;;9.30;76.70;;;;;;5001925;28;92222;-39
2023/02/20 02:51:44;;;;;;;;;;;9.30;76.70;;;;;;5001867;28;93895;-39
2023/02/20 02:54:19;;;;;;;;;;;9.30;76.70;;;;;;5004224;28;94397;-38
2023/02/20 02:56:46;;;;;;;;;;;9.20;76.70;;;;;;5001736;28;93665;-39
2023/02/20 02:59:16;;;;;;;;;;;9.20;76.70;;;;;;5001856;28;92550;-38
2023/02/20 03:01:43;;;;;;;;;;;9.20;76.70;;;;;;5001711;28;92113;-38
2023/02/20 03:04:10;;;;;;;;;;;9.30;76.70;;;;;;5001480;28;92591;-38
2023/02/20 03:06:38;;;;;;;;;;;9.20;76.70;;;;;;5000114;28;94232;-39
2023/02/20 03:09:09;;;;;;;;;;;9.20;76.70;;;;;;5001626;28;92133;-38
2023/02/20 03:11:35;;;;;;;;;;;9.20;76.70;;;;;;5001586;28;92592;-39
2023/02/20 03:16:45;;;;;;;;;;;9.20;76.60;;;;;;5004824;28;92004;-39
2023/02/20 03:19:12;;;;;;;;;;;9.20;76.70;;;;;;5000976;28;94470;-39
2023/02/20 03:21:41;;;;;;;;;;;9.20;76.70;;;;;;5001316;28;92126;-38
2023/02/20 03:24:07;;;;;;;;;;;9.20;76.80;;;;;;5001796;28;92418;-39
2023/02/20 03:26:34;;;;;;;;;;;9.10;76.70;;;;;;5000663;28;94958;-38
2023/02/20 03:29:02;;;;;;;;;;;9.10;77.10;;;;;;5001419;28;92218;-39
2023/02/20 03:31:33;;;;;;;;;;;9.10;76.60;;;;;;5000575;28;93872;-38
2023/02/20 03:45:10;;;;;;;;;;;9.10;76.70;;;;;;4999431;28;93080;-39
2023/02/20 03:47:37;;;;;;;;;;;9.10;76.60;;;;;;5000469;28;94701;-39
2023/02/20 03:50:03;;;;;;;;;;;9.00;76.60;;;;;;5001323;28;91427;-38
2023/02/20 03:52:29;;;;;;;;;;;9.00;77.00;;;;;;5001028;28;94217;-39
2023/02/20 03:54:54;;;;;;;;;;;9.00;76.60;;;;;;5000555;28;94540;-38
2023/02/20 03:57:24;;;;;;;;;;;9.00;76.60;;;;;;4999902;28;93339;-39
2023/02/20 03:59:52;;;;;;;;;;;9.00;76.60;;;;;;5000813;28;95278;-39
2023/02/20 04:02:43;;;;;;;;;;;9.00;77.20;;;;;;5003306;28;94626;-38
2023/02/20 04:05:14;;;;;;;;;;;9.00;76.60;;;;;;4995255;28;93737;-38
2023/02/20 04:07:42;;;;;;;;;;;9.00;76.60;;;;;;5000060;28;93204;-39
2023/02/20 04:10:10;;;;;;;;;;;9.00;76.60;;;;;;5000709;28;92273;-39
2023/02/20 04:12:39;;;;;;;;;;;8.90;76.60;;;;;;5000612;28;93947;-38
2023/02/20 04:15:05;;;;;;;;;;;8.90;76.60;;;;;;5000597;28;94049;-38
2023/02/20 04:17:34;;;;;;;;;;;8.90;76.60;;;;;;5000441;28;92166;-38
2023/02/20 04:20:00;;;;;;;;;;;8.90;76.70;;;;;;5000562;28;93769;-38
2023/02/20 04:22:30;;;;;;;;;;;8.90;76.70;;;;;;4999318;28;95990;-38
2023/02/20 04:24:58;;;;;;;;;;;8.90;76.60;;;;;;5003502;28;91993;-39
2023/02/20 04:27:23;;;;;;;;;;;8.90;76.70;;;;;;5000035;28;92826;-39
2023/02/20 04:29:49;;;;;;;;;;;8.90;76.70;;;;;;5000261;28;92306;-38
2023/02/20 04:32:14;;;;;;;;;;;8.90;76.60;;;;;;5000274;28;93556;-38
2023/02/20 04:34:40;;;;;;;;;;;8.90;76.60;;;;;;4999715;28;94664;-39
2023/02/20 04:37:10;;;;;;;;;;;8.90;76.70;;;;;;4999880;28;92075;-39
2023/02/20 04:39:35;;;;;;;;;;;8.90;76.70;;;;;;5000870;28;92553;-39
2023/02/20 04:42:01;;;;;;;;;;;8.90;76.50;;;;;;4999545;28;95020;-39
2023/02/20 04:44:33;;;;;;;;;;;8.90;76.70;;;;;;5003268;28;92157;-39
2023/02/20 04:47:00;;;;;;;;;;;8.90;76.40;;;;;;4998919;28;95277;-38
2023/02/20 04:49:26;;;;;;;;;;;8.90;76.40;;;;;;4999803;28;92141;-38
2023/02/20 04:51:51;;;;;;;;;;;8.90;76.60;;;;;;4999875;28;94186;-39
2023/02/20 04:54:17;;;;;;;;;;;8.90;76.30;;;;;;4999690;28;93099;-38
2023/02/20 04:56:43;;;;;;;;;;;8.90;76.30;;;;;;4999732;28;92498;-39
2023/02/20 04:59:08;;;;;;;;;;;8.90;76.10;;;;;;5000140;28;92346;-38
2023/02/20 05:01:34;;;;;;;;;;;8.80;76.10;;;;;;4999548;28;93157;-39
2023/02/20 05:03:59;;;;;;;;;;;8.90;76.30;;;;;;5000032;28;91409;-39
2023/02/20 05:06:25;;;;;;;;;;;8.80;76.10;;;;;;5002175;28;92025;-39
2023/02/20 05:08:50;;;;;;;;;;;8.80;76.40;;;;;;4999614;28;92150;-39
2023/02/20 05:11:16;;;;;;;;;;;8.80;76.50;;;;;;4999266;28;93086;-38
2023/02/20 05:13:41;;;;;;;;;;;8.80;76.50;;;;;;4999039;28;94685;-39
2023/02/20 05:16:07;;;;;;;;;;;8.80;76.40;;;;;;4999538;28;92107;-39
2023/02/20 05:18:33;;;;;;;;;;;8.80;76.50;;;;;;4999527;28;94057;-38
2023/02/20 05:23:46;;;;;;;;;;;8.80;76.40;;;;;;4999678;28;92047;-38
2023/02/20 05:26:15;;;;;;;;;;;8.80;76.50;;;;;;4999538;28;93902;-39
2023/02/20 05:28:41;;;;;;;;;;;8.80;76.50;;;;;;5002454;28;92434;-39
2023/02/20 05:31:06;;;;;;;;;;;8.80;76.30;;;;;;4999853;28;92503;-39
2023/02/20 05:33:32;;;;;;;;;;;8.80;76.40;;;;;;4998690;28;94759;-39
2023/02/20 05:35:58;;;;;;;;;;;8.80;76.40;;;;;;4998626;28;93306;-38
2023/02/20 05:38:23;;;;;;;;;;;8.80;76.30;;;;;;4999238;28;94908;-38
2023/02/20 05:40:49;;;;;;;;;;;8.80;76.30;;;;;;4998580;28;95148;-39
2023/02/20 05:43:15;;;;;;;;;;;8.70;76.30;;;;;;4999477;28;92042;-38
2023/02/20 05:45:41;;;;;;;;;;;8.70;76.40;;;;;;4999219;28;94331;-38
2023/02/20 05:48:06;;;;;;;;;;;8.70;76.30;;;;;;4998436;28;94604;-38
2023/02/20 05:50:32;;;;;;;;;;;8.70;76.50;;;;;;5002349;28;92175;-39
2023/02/20 05:52:57;;;;;;;;;;;8.80;76.40;;;;;;4999107;28;93818;-38
2023/02/20 05:55:23;;;;;;;;;;;8.70;76.20;;;;;;4999049;28;93179;-38
2023/02/20 05:57:48;;;;;;;;;;;8.70;76.30;;;;;;4999107;28;93752;-38
2023/02/20 06:00:14;;;;;;;;;;;8.80;76.20;;;;;;4997813;28;94839;-39
2023/02/20 06:02:39;;;;;;;;;;;8.70;76.20;;;;;;4998913;28;92197;-38
2023/02/20 06:05:06;;;;;;;;;;;8.70;76.30;;;;;;4999602;28;92120;-39
2023/02/20 06:07:32;;;;;;;;;;;8.70;76.10;;;;;;5004692;28;94393;-39
2023/02/20 06:09:57;;;;;;;;;;;8.70;76.40;;;;;;5005804;28;92163;-38
2023/02/20 06:12:24;;;;;;;;;;;8.70;76.20;;;;;;5008643;28;91899;-39
2023/02/20 06:14:50;;;;;;;;;;;8.70;76.20;;;;;;5005650;28;92197;-38
2023/02/20 06:17:15;;;;;;;;;;;8.70;76.20;;;;;;5005716;28;93947;-38
2023/02/20 06:19:41;;;;;;;;;;;8.70;76.20;;;;;;5005222;28;93181;-38
2023/02/20 06:22:07;;;;;;;;;;;8.70;76.30;;;;;;5005595;28;91945;-38
2023/02/20 06:24:33;;;;;;;;;;;8.70;76.30;;;;;;5004852;28;94025;-38
2023/02/20 06:27:00;;;;;;;;;;;8.70;76.20;;;;;;5004692;28;94941;-38
2023/02/20 06:29:25;;;;;;;;;;;8.70;76.10;;;;;;5005405;28;92119;-39
2023/02/20 06:31:51;;;;;;;;;;;8.70;76.10;;;;;;5007990;28;92418;-39
2023/02/20 06:34:16;;;;;;;;;;;8.70;76.00;;;;;;5005153;28;92154;-39
2023/02/20 06:36:42;;;;;;;;;;;8.70;76.10;;;;;;5005081;28;92612;-38
2023/02/20 06:39:09;;;;;;;;;;;8.70;76.10;;;;;;5004820;28;94412;-38
2023/02/20 06:41:34;;;;;;;;;;;8.70;76.10;;;;;;5005902;28;91452;-38
2023/02/20 06:44:00;;;;;;;;;;;8.70;76.10;;;;;;5005385;28;92957;-39
2023/02/20 06:46:25;;;;;;;;;;;8.70;76.10;;;;;;5004561;28;94541;-39
2023/02/20 06:48:52;;;;;;;;;;;8.70;76.00;;;;;;5004360;28;93235;-38
2023/02/20 06:51:18;;;;;;;;;;;8.70;76.20;;;;;;5004937;28;94721;-38
2023/02/20 06:53:44;;;;;;;;;;;8.70;76.10;;;;;;5007571;28;93237;-38
2023/02/20 06:56:10;;;;;;;;;;;8.70;76.00;;;;;;5004978;28;93865;-38
2023/02/20 06:58:36;;;;;;;;;;;8.70;76.00;;;;;;5004688;28;93060;-39
2023/02/20 07:01:01;;;;;;;;;;;8.70;76.00;;;;;;5004917;28;92160;-38
2023/02/20 07:03:27;;;;;;;;;;;8.70;76.00;;;;;;5005011;28;92842;-39
2023/02/20 07:05:52;;;;;;;;;;;8.70;75.80;;;;;;5004260;28;93683;-38
2023/02/20 07:08:18;;;;;;;;;;;8.70;76.00;;;;;;5004796;28;92187;-39
2023/02/20 07:10:43;;;;;;;;;;;8.70;75.90;;;;;;5004865;28;93985;-38
2023/02/20 07:13:08;;;;;;;;;;;8.70;75.80;;;;;;5003531;28;95797;-39
2023/02/20 07:15:34;;;;;;;;;;;8.70;75.70;;;;;;5008068;28;92204;-38
2023/02/20 07:17:59;;;;;;;;;;;8.70;75.60;;;;;;5000856;28;93305;-38
2023/02/20 07:20:25;;;;;;;;;;;8.70;75.60;;;;;;5001478;28;92068;-39
2023/02/20 07:22:51;;;;;;;;;;;8.70;75.20;;;;;;5001765;28;92455;-38
2023/02/20 07:25:16;;;;;;;;;;;8.70;75.30;;;;;;5000734;28;94428;-39
2023/02/20 07:27:42;;;;;;;;;;;8.70;75.30;;;;;;5001124;28;92250;-38
2023/02/20 07:30:08;;;;;;;;;;;8.70;75.40;;;;;;5001830;28;93955;-39
2023/02/20 07:32:33;;;;;;;;;;;8.70;75.50;;;;;;5000478;28;93376;-39
2023/02/20 07:34:58;;;;;;;;;;;8.70;75.10;;;;;;5001339;28;92150;-38
2023/02/20 07:37:24;;;;;;;;;;;8.70;75.00;;;;;;5003514;28;94206;-38
2023/02/20 07:39:49;;;;;;;;;;;8.70;74.90;;;;;;5001150;28;92155;-38
2023/02/20 07:42:18;;;;;;;;;;;8.70;74.70;;;;;;5001285;28;92447;-39
2023/02/20 07:44:45;;;;;;;;;;;8.60;74.40;;;;;;5000721;28;94718;-39
2023/02/20 07:47:11;;;;;;;;;;;8.60;74.70;;;;;;5000695;28;92191;-38
2023/02/20 07:49:36;;;;;;;;;;;8.60;74.80;;;;;;5001161;28;93947;-38
2023/02/20 07:52:02;;;;;;;;;;;8.60;74.90;;;;;;5000455;28;93734;-38
2023/02/20 07:54:28;;;;;;;;;;;8.60;74.60;;;;;;5001439;28;91481;-38
2023/02/20 07:56:54;;;;;;;;;;;8.60;74.90;;;;;;5001119;28;92929;-38
2023/02/20 07:59:19;;;;;;;;;;;8.60;74.40;;;;;;5003461;28;94701;-38
2023/02/20 08:01:45;;;;;;;;;;;8.60;74.10;;;;;;5000396;28;93480;-38
2023/02/20 08:04:10;;;;;;;;;;;8.60;75.00;;;;;;4999982;28;95105;-39
2023/02/20 08:06:36;;;;;;;;;;;8.60;74.20;;;;;;5000160;28;92357;-39
2023/02/20 08:09:01;;;;;;;;;;;8.60;73.90;;;;;;5000937;28;92592;-39
2023/02/20 08:11:27;;;;;;;;;;;8.60;73.90;;;;;;5000130;28;94809;-38
2023/02/20 08:13:54;;;;;;;;;;;8.60;73.90;;;;;;5000520;28;92062;-38
2023/02/20 08:16:20;;;;;;;;;;;8.50;73.60;;;;;;5000332;28;92759;-38
2023/02/20 08:18:46;;;;;;;;;;;8.60;74.00;;;;;;5000644;28;94431;-38
2023/02/20 08:21:11;;;;;;;;;;;8.60;73.80;;;;;;5003448;28;92099;-38
2023/02/20 08:23:37;;;;;;;;;;;8.60;73.60;;;;;;4999971;28;94596;-38
2023/02/20 08:26:03;;;;;;;;;;;8.60;73.70;;;;;;4999991;28;93928;-38
2023/02/20 08:28:28;;;;;;;;;;;8.60;73.80;;;;;;5000146;28;94875;-39
2023/02/20 08:30:54;;;;;;;;;;;8.60;73.80;;;;;;4999855;28;94583;-38
2023/02/20 08:33:19;;;;;;;;;;;8.60;73.40;;;;;;5000245;28;92274;-38
2023/02/20 08:35:47;;;;;;;;;;;8.60;73.40;;;;;;5000311;28;93640;-38
2023/02/20 08:38:23;;;;;;;;;;;8.60;73.50;;;;;;4999631;28;95023;-38
2023/02/20 08:40:49;;;;;;;;;;;8.60;73.20;;;;;;5003297;28;91970;-39
2023/02/20 08:43:14;;;;;;;;;;;8.60;73.40;;;;;;5000164;28;93764;-38
2023/02/20 08:45:40;;;;;;;;;;;8.60;73.50;;;;;;4999978;28;92736;-38
2023/02/20 08:48:05;;;;;;;;;;;8.60;73.50;;;;;;5000050;28;93875;-39
2023/02/20 08:50:31;;;;;;;;;;;8.60;73.40;;;;;;4998754;28;95817;-39
2023/02/20 08:52:56;;;;;;;;;;;8.60;73.20;;;;;;5000096;28;92209;-38
2023/02/20 08:55:22;;;;;;;;;;;8.60;73.40;;;;;;5000097;28;92536;-38
2023/02/20 08:57:47;;;;;;;;;;;8.70;73.40;;;;;;4999607;28;93185;-39
2023/02/20 09:00:14;;;;;;;;;;;8.70;73.20;;;;;;5000016;28;92192;-38
2023/02/20 09:02:39;;;;;;;;;;;8.70;73.40;;;;;;5002422;28;94174;-39
2023/02/20 09:05:06;;;;;;;;;;;8.70;73.40;;;;;;4999582;28;92191;-39
2023/02/20 09:07:31;;;;;;;;;;;8.70;73.50;;;;;;4999926;28;93692;-38
2023/02/20 09:09:56;;;;;;;;;;;8.60;73.30;;;;;;4999526;28;93063;-38
2023/02/20 09:12:22;;;;;;;;;;;8.60;73.00;;;;;;4999587;28;92085;-38
2023/02/20 09:14:47;;;;;;;;;;;8.60;73.00;;;;;;4999218;28;93674;-39
2023/02/20 09:17:13;;;;;;;;;;;8.70;73.20;;;;;;4998938;28;94445;-38
2023/02/20 09:19:38;;;;;;;;;;;8.70;73.40;;;;;;4999559;28;92185;-39
2023/02/20 09:22:04;;;;;;;;;;;8.60;73.10;;;;;;4999714;28;93841;-39
2023/02/20 09:24:33;;;;;;;;;;;8.60;73.00;;;;;;5002066;28;94741;-39
2023/02/20 09:27:02;;;;;;;;;;;8.60;73.00;;;;;;4999369;28;93550;-39
2023/02/20 09:29:28;;;;;;;;;;;8.60;72.70;;;;;;4998990;28;94597;-38
2023/02/20 09:31:53;;;;;;;;;;;8.70;72.90;;;;;;4999645;28;91706;-38
2023/02/20 09:34:19;;;;;;;;;;;8.60;72.50;;;;;;4999577;28;93305;-39
2023/02/20 09:36:45;;;;;;;;;;;8.60;72.70;;;;;;4998885;28;94595;-38
2023/02/20 09:39:10;;;;;;;;;;;8.70;72.70;;;;;;4998680;28;93085;-38
2023/02/20 09:41:45;;;;;;;;;;;8.60;72.70;;;;;;4998347;28;94887;-38
2023/02/20 09:44:28;;;;;;;;;;;8.70;72.90;;;;;;4998722;28;94630;-39
2023/02/20 09:46:55;;;;;;;;;;;8.70;72.90;;;;;;5002303;28;92270;-39
2023/02/20 09:49:24;;;;;;;;;;;8.60;72.20;;;;;;4998506;28;94730;-39
2023/02/20 09:51:58;;;;;;;;;;;8.70;72.50;;;;;;4999075;28;92191;-38
2023/02/20 09:54:26;;;;;;;;;;;8.60;72.40;;;;;;4999308;28;93786;-38
2023/02/20 09:56:54;;;;;;;;;;;8.70;72.50;;;;;;4998842;28;94152;-39
2023/02/20 09:59:25;;;;;;;;;;;8.70;72.40;;;;;;4999190;28;92278;-39
2023/02/20 10:01:51;;;;;;;;;;;8.70;72.40;;;;;;4998987;28;93572;-38
2023/02/20 10:04:18;;;;;;;;;;;8.70;72.30;;;;;;4997452;28;95437;-38
2023/02/20 10:06:45;;;;;;;;;;;8.70;72.20;;;;;;4998917;28;92228;-39
2023/02/20 10:09:12;;;;;;;;;;;8.70;71.90;;;;;;5001417;28;93729;-38
2023/02/20 10:11:40;;;;;;;;;;;8.70;72.10;;;;;;4998888;28;92212;-38
2023/02/20 10:14:18;;;;;;;;;;;8.70;72.10;;;;;;4998952;28;93723;-38
2023/02/20 10:16:49;;;;;;;;;;;8.80;72.20;;;;;;4998109;28;94749;-38
2023/02/20 10:19:24;;;;;;;;;;;8.70;71.70;;;;;;4999039;28;92084;-39
2023/02/20 10:21:56;;;;;;;;;;;8.70;71.60;;;;;;4999075;28;93874;-39
2023/02/20 10:24:30;;;;;;;;;;;8.70;71.30;;;;;;4998340;28;94668;-38
2023/02/20 10:27:03;;;;;;;;;;;8.70;70.80;;;;;;4998842;28;92270;-39
2023/02/20 10:29:30;;;;;;;;;;;8.70;71.10;;;;;;4998064;28;96379;-39
2023/02/20 10:32:01;;;;;;;;;;;8.70;71.10;;;;;;5001059;28;94146;-38
2023/02/20 10:34:30;;;;;;;;;;;8.70;70.70;;;;;;4998448;28;93755;-38
2023/02/20 10:37:00;;;;;;;;;;;8.80;71.00;;;;;;4998130;28;94611;-38
2023/02/20 10:39:27;;;;;;;;;;;8.80;70.70;;;;;;4998920;28;91992;-38
2023/02/20 10:42:01;;;;;;;;;;;8.80;70.60;;;;;;4998461;28;94153;-39
2023/02/20 10:44:35;;;;;;;;;;;8.80;70.00;;;;;;4997958;28;94444;-38
2023/02/20 10:47:05;;;;;;;;;;;8.80;70.20;;;;;;4998780;28;91306;-38
2023/02/20 10:49:34;;;;;;;;;;;8.80;69.90;;;;;;4998540;28;94026;-38
2023/02/20 10:52:01;;;;;;;;;;;8.80;69.50;;;;;;5002028;28;95002;-39
2023/02/20 10:54:36;;;;;;;;;;;8.80;70.10;;;;;;5001525;28;93219;-39
2023/02/20 10:57:19;;;;;;;;;;;8.80;69.80;;;;;;5001273;28;94652;-39
2023/02/20 10:59:54;;;;;;;;;;;8.80;69.50;;;;;;5001910;28;92175;-38
2023/02/20 11:02:22;;;;;;;;;;;8.90;69.90;;;;;;5002018;28;93659;-39
2023/02/20 11:04:51;;;;;;;;;;;8.80;69.80;;;;;;5001286;28;94398;-39
2023/02/20 11:07:21;;;;;;;;;;;8.80;69.70;;;;;;5001454;28;92157;-39
2023/02/20 11:09:46;;;;;;;;;;;8.90;69.90;;;;;;5001739;28;93827;-38
2023/02/20 11:12:24;;;;;;;;;;;8.90;70.20;;;;;;5001691;28;92436;-38
2023/02/20 11:14:51;;;;;;;;;;;8.90;69.60;;;;;;5004824;28;92070;-38
2023/02/20 11:17:18;;;;;;;;;;;8.90;69.90;;;;;;5000961;28;94611;-39
2023/02/20 11:19:44;;;;;;;;;;;8.90;69.60;;;;;;5000740;28;93552;-39
2023/02/20 11:22:10;;;;;;;;;;;8.90;69.20;;;;;;5001302;28;94571;-38
2023/02/20 11:24:37;;;;;;;;;;;8.90;69.00;;;;;;5000607;28;93797;-39
2023/02/20 11:27:08;;;;;;;;;;;8.90;69.40;;;;;;5001283;28;92140;-39
2023/02/20 11:29:39;;;;;;;;;;;8.90;69.00;;;;;;5001490;28;93900;-39
2023/02/20 11:32:34;;;;;;;;;;;8.90;69.10;;;;;;5000862;28;94516;-39
2023/02/20 11:35:19;;;;;;;;;;;9.00;69.10;;;;;;4991669;28;92190;-38
2023/02/20 11:37:45;;;;;;;;;;;9.00;69.30;;;;;;5004537;28;93750;-39
2023/02/20 11:40:15;;;;;;;;;;;9.00;69.20;;;;;;5001211;28;92087;-38
2023/02/20 11:42:40;;;;;;;;;;;9.00;69.00;;;;;;5001107;28;93886;-38
2023/02/20 11:45:16;;;;;;;;;;;9.00;68.80;;;;;;4999907;28;95744;-38
2023/02/20 11:47:42;;;;;;;;;;;9.00;69.20;;;;;;5000667;28;92203;-39
2023/02/20 11:50:12;;;;;;;;;;;9.00;69.50;;;;;;5001001;28;93869;-39
2023/02/20 11:52:53;;;;;;;;;;;9.10;69.20;;;;;;5000290;28;96221;-39
2023/02/20 11:55:21;;;;;;;;;;;9.00;68.10;;;;;;5000838;28;92053;-38
2023/02/20 11:57:46;;;;;;;;;;;9.10;68.90;;;;;;5000962;28;93887;-38
2023/02/20 12:00:14;;;;;;;;;;;9.10;69.00;;;;;;5003076;28;93600;-39
2023/02/20 12:02:47;;;;;;;;;;;9.10;68.90;;;;;;5001257;28;94143;-39
2023/02/20 12:05:13;;;;;;;;;;;9.10;68.80;;;;;;4999319;28;94610;-39
2023/02/20 12:07:43;;;;;;;;;;;9.10;68.70;;;;;;5000386;28;92204;-38
2023/02/20 12:10:20;;;;;;;;;;;9.10;69.00;;;;;;4999997;28;93000;-38
2023/02/20 12:12:46;;;;;;;;;;;9.10;69.30;;;;;;5000090;28;94510;-39
2023/02/20 12:15:15;;;;;;;;;;;9.20;69.00;;;;;;5000549;28;92216;-39
2023/02/20 12:17:43;;;;;;;;;;;9.10;68.80;;;;;;5000518;28;93845;-39
2023/02/20 12:20:19;;;;;;;;;;;9.10;68.80;;;;;;4999888;28;94855;-39
2023/02/20 12:22:50;;;;;;;;;;;9.00;68.40;;;;;;5003488;28;92648;-39
2023/02/20 12:25:15;;;;;;;;;;;9.10;68.80;;;;;;4999821;28;94574;-39
2023/02/20 12:27:41;;;;;;;;;;;9.10;68.80;;;;;;5000741;28;91421;-39
2023/02/20 12:30:09;;;;;;;;;;;9.20;68.80;;;;;;5000327;28;92067;-39
2023/02/20 12:32:49;;;;;;;;;;;9.20;69.00;;;;;;4999906;28;94689;-39
2023/02/20 12:35:21;;;;;;;;;;;9.20;68.70;;;;;;5000138;28;93687;-38
2023/02/20 12:38:14;;;;;;;;;;;9.20;68.70;;;;;;4999936;28;94886;-38
2023/02/20 12:40:56;;;;;;;;;;;9.20;68.10;;;;;;4997559;28;93082;-38
2023/02/20 12:43:44;;;;;;;;;;;9.20;68.40;;;;;;5000380;28;91986;-39
2023/02/20 12:46:19;;;;;;;;;;;9.30;68.50;;;;;;5002794;28;92225;-38
2023/02/20 12:48:47;;;;;;;;;;;9.30;68.60;;;;;;5000432;28;92196;-39
2023/02/20 12:51:20;;;;;;;;;;;9.30;68.50;;;;;;4999949;28;93881;-39
2023/02/20 12:53:51;;;;;;;;;;;9.30;69.10;;;;;;5000289;28;92490;-38
2023/02/20 12:56:31;;;;;;;;;;;9.30;68.50;;;;;;5000189;28;92144;-38
2023/02/20 12:58:59;;;;;;;;;;;9.30;68.30;;;;;;5000021;28;93749;-38
2023/02/20 13:01:25;;;;;;;;;;;9.30;68.50;;;;;;4999004;28;93998;-39
2023/02/20 13:04:00;;;;;;;;;;;9.30;68.40;;;;;;4999895;28;92182;-38
2023/02/20 13:06:32;;;;;;;;;;;9.30;67.60;;;;;;5001933;28;93816;-38
2023/02/20 13:09:02;;;;;;;;;;;9.30;68.20;;;;;;4999887;28;92132;-39
2023/02/20 13:11:31;;;;;;;;;;;9.30;68.10;;;;;;4999770;28;92308;-39
2023/02/20 13:14:15;;;;;;;;;;;9.40;68.60;;;;;;4999207;28;94591;-39
2023/02/20 13:17:14;;;;;;;;;;;9.30;68.80;;;;;;4998416;28;92093;-39
2023/02/20 13:19:53;;;;;;;;;;;9.40;68.30;;;;;;4976501;28;93992;-39
2023/02/20 13:22:19;;;;;;;;;;;9.30;68.30;;;;;;4999204;28;94594;-39
2023/02/20 13:24:45;;;;;;;;;;;9.40;68.40;;;;;;4999557;28;92177;-39
2023/02/20 13:27:26;;;;;;;;;;;9.40;67.80;;;;;;4999020;28;93740;-38
2023/02/20 13:29:59;;;;;;;;;;;9.40;68.20;;;;;;5002172;28;94477;-38
2023/02/20 13:32:27;;;;;;;;;;;9.40;68.30;;;;;;4999674;28;92682;-39
2023/02/20 13:34:55;;;;;;;;;;;9.40;68.40;;;;;;4998912;28;94493;-39
2023/02/20 13:37:32;;;;;;;;;;;9.40;68.20;;;;;;4999244;28;92379;-38
2023/02/20 13:40:18;;;;;;;;;;;9.40;68.10;;;;;;4999538;28;93837;-38
2023/02/20 13:42:43;;;;;;;;;;;9.40;67.80;;;;;;4998577;28;94489;-39
2023/02/20 13:45:27;;;;;;;;;;;9.40;68.30;;;;;;4999677;28;91831;-38
2023/02/20 13:48:13;;;;;;;;;;;9.50;68.50;;;;;;4999264;28;92970;-39
2023/02/20 13:50:38;;;;;;;;;;;9.40;68.10;;;;;;4998473;28;94925;-38
2023/02/20 13:53:04;;;;;;;;;;;9.50;68.40;;;;;;5001407;28;93145;-39
2023/02/20 13:55:31;;;;;;;;;;;9.50;68.20;;;;;;4998965;28;93118;-39
2023/02/20 13:57:56;;;;;;;;;;;9.50;67.30;;;;;;4999206;28;92756;-39
2023/02/20 14:00:25;;;;;;;;;;;9.50;67.30;;;;;;4999332;28;92388;-39
2023/02/20 14:02:51;;;;;;;;;;;9.50;67.90;;;;;;4998531;28;94522;-38
2023/02/20 14:05:18;;;;;;;;;;;9.50;67.90;;;;;;4998464;28;92273;-39
2023/02/20 14:07:45;;;;;;;;;;;9.60;68.20;;;;;;4998623;28;94125;-39
2023/02/20 14:10:20;;;;;;;;;;;9.60;68.30;;;;;;4998717;28;93505;-39
2023/02/20 14:12:51;;;;;;;;;;;9.60;68.10;;;;;;4998830;28;92238;-39
2023/02/20 14:15:17;;;;;;;;;;;9.60;68.20;;;;;;5001478;28;92705;-39
2023/02/20 14:17:42;;;;;;;;;;;9.60;68.80;;;;;;4998034;28;93057;-39
2023/02/20 14:20:17;;;;;;;;;;;9.70;68.90;;;;;;4998586;28;94899;-39
2023/02/20 14:22:43;;;;;;;;;;;9.70;69.10;;;;;;4998261;28;93491;-39
2023/02/20 14:25:17;;;;;;;;;;;9.70;69.10;;;;;;4998639;28;91929;-39
2023/02/20 14:27:42;;;;;;;;;;;9.70;69.30;;;;;;5000998;28;93833;-38
2023/02/20 14:30:13;;;;;;;;;;;9.70;69.20;;;;;;5001762;28;93659;-39
2023/02/20 14:32:46;;;;;;;;;;;9.70;68.90;;;;;;5002285;28;92026;-39
2023/02/20 14:35:11;;;;;;;;;;;9.70;69.40;;;;;;5002620;28;93514;-39
2023/02/20 14:37:55;;;;;;;;;;;9.70;69.20;;;;;;5004880;28;93183;-39
2023/02/20 14:40:32;;;;;;;;;;;9.70;69.30;;;;;;5002165;28;93160;-39
2023/02/20 14:43:02;;;;;;;;;;;9.80;69.40;;;;;;5001290;28;93968;-39
2023/02/20 14:45:27;;;;;;;;;;;9.80;69.40;;;;;;5002201;28;92152;-38
2023/02/20 14:47:57;;;;;;;;;;;9.80;69.40;;;;;;5001970;28;93950;-39
2023/02/20 14:50:25;;;;;;;;;;;9.80;69.70;;;;;;5001408;28;94804;-38
2023/02/20 14:53:01;;;;;;;;;;;9.80;69.80;;;;;;5002166;28;92182;-38
2023/02/20 14:55:27;;;;;;;;;;;9.80;69.70;;;;;;5001777;28;93991;-38